Latest Weather Observations for Mount Boyce

IDN60901

Issued at 5:01 pm EST Friday 23 August 2019 (issued every 10 minutes, with the page automatically refreshed every 10 minutes)

About weather observations | Map of Sydney area stations | Latest observations for Sydney area | Other Formats
Station Details ID: 063292 Name: MOUNT BOYCE AWS Lat: -33.62 Lon: 150.27 Height: 1080.0 m
Data from the previous 72 hours. | See also: Recent months at Mount Boyce
Date/Time
EST
Temp
°C
App
Temp
°C
Dew
Point
°C
Rel
Hum
%
Delta-T
°C
Wind Press
QNH
hPa
Press
MSL
hPa
Rain since
9am
mm
Dir  Spd
km/h
Gust
km/h
Spd
kts
Gust
kts
23/05:00pm 12.2 7.5 -4.8 30 6.7 W 11 17 6 9 - - 0.0
23/04:30pm 14.0 9.6 -6.2 24 7.9 WNW 9 15 5 8 - - 0.0
23/04:00pm 14.4 9.6 -5.9 24 8.0 WSW 11 15 6 8 - - 0.0
23/03:30pm 13.9 9.4 -6.9 23 8.0 WSW 9 15 5 8 - - 0.0
23/03:00pm 14.1 9.9 -3.6 29 7.3 SW 9 15 5 8 - - 0.0
23/02:30pm 13.6 9.2 -2.3 33 6.7 W 11 19 6 10 - - 0.0
23/02:00pm 13.4 9.5 -1.3 36 6.3 WSW 9 15 5 8 - - 0.0
23/01:30pm 13.0 8.9 0.1 41 5.7 W 11 19 6 10 - - 0.0
23/01:00pm 12.2 8.9 0.0 43 5.4 WNW 7 13 4 7 - - 0.0
23/12:30pm 10.7 7.4 -0.1 47 4.7 W 7 13 4 7 - - 0.0
23/12:00pm 9.9 6.6 -0.9 47 4.5 W 6 13 3 7 - - 0.0
23/11:30am 8.9 5.6 -1.5 48 4.3 W 6 9 3 5 - - 0.0
23/11:00am 9.6 5.9 -0.3 50 4.2 NE 9 17 5 9 - - 0.0
23/10:30am 8.1 4.6 -1.1 52 3.8 NNE 7 15 4 8 - - 0.0
23/10:00am 6.8 2.9 -1.3 56 3.3 NNE 9 15 5 8 - - 0.0
23/09:30am 5.5 1.2 -1.6 60 2.8 NNE 11 17 6 9 - - 0.0
23/09:00am 5.2 1.3 -1.3 63 2.6 NNE 9 13 5 7 - - 0.0
23/08:30am 4.4 1.1 -1.2 67 2.2 ENE 6 9 3 5 - - 0.0
23/08:00am 1.3 -1.8 -2.8 74 1.6 SE 4 11 2 6 - - 0.0
23/07:30am 0.4 -3.3 -3.3 76 1.4 SE 7 13 4 7 - - 0.0
23/07:00am -0.4 -4.3 -4.6 73 1.4 SSE 7 13 4 7 - - 0.0
23/06:30am -0.6 -4.9 -5.2 71 1.5 SE 9 13 5 7 - - 0.0
23/06:00am -0.5 -5.2 -5.5 69 1.7 S 11 17 6 9 - - 0.0
23/05:30am -0.6 -5.3 -5.4 70 1.6 S 11 15 6 8 - - 0.0
23/05:00am -0.5 -4.8 -5.1 71 1.5 SSW 9 13 5 7 - - 0.0
23/04:30am -0.4 -4.1 -5.0 71 1.6 SW 6 13 3 7 - - 0.0
23/04:00am 0.1 -4.6 -4.9 69 1.7 S 11 20 6 11 - - 0.0
23/03:30am 0.5 -3.4 -4.3 70 1.7 SW 7 13 4 7 - - 0.0
23/03:00am 0.8 -3.4 -4.0 70 1.7 SSW 9 13 5 7 - - 0.0
23/02:30am 1.0 -2.8 -4.0 69 1.8 SW 7 11 4 6 - - 0.0
23/02:00am 1.2 -3.0 -3.8 69 1.9 SSW 9 11 5 6 - - 0.0
23/01:30am 1.8 -2.4 -3.7 67 2.1 S 9 13 5 7 - - 0.0
23/01:00am 1.9 -2.2 -2.8 71 1.7 S 9 15 5 8 - - 0.0
23/12:30am 2.4 -1.6 -2.1 72 1.7 SSW 9 15 5 8 - - 0.0
23/12:00am 2.9 -1.0 -1.5 73 1.7 S 9 13 5 7 - - 0.0
 
Date/Time
EST
Temp
°C
App
Temp
°C
Dew
Point
°C
Rel
Hum
%
Delta-T
°C
Wind Press
QNH
hPa
Press
MSL
hPa
Rain since
9am
mm
Dir  Spd
km/h
Gust
km/h
Spd
kts
Gust
kts
22/11:30pm 3.2 -0.2 -0.4 77 1.4 SE 7 13 4 7 - - 0.0
22/11:00pm 3.5 0.4 -0.1 77 1.4 E 6 9 3 5 - - 0.0
22/10:30pm 3.7 0.4 0.4 79 1.3 ENE 7 11 4 6 - - 0.0
22/10:00pm 4.3 1.2 1.2 80 1.3 E 7 11 4 6 - - 0.0
22/09:30pm 4.7 1.8 1.4 79 1.4 ENE 6 9 3 5 - - 0.0
22/09:00pm 4.7 1.6 1.2 78 1.5 ENE 7 11 4 6 - - 0.0
22/08:30pm 5.0 1.9 1.3 77 1.6 ENE 7 11 4 6 - - 0.0
22/08:00pm 5.2 2.1 1.3 76 1.7 ENE 7 11 4 6 - - 0.0
22/07:30pm 5.5 2.6 1.2 74 1.8 E 6 9 3 5 - - 0.0
22/07:00pm 5.7 2.7 0.9 71 2.0 SE 6 11 3 6 - - 0.0
22/06:30pm 6.3 2.3 0.2 65 2.5 SW 11 17 6 9 - - 0.0
22/06:00pm 6.4 1.2 0.1 64 2.6 SW 17 24 9 13 - - 0.0
22/05:30pm 7.0 0.8 0.0 61 2.9 WSW 22 33 12 18 - - 0.0
22/05:00pm 8.4 1.1 0.1 56 3.5 WSW 28 41 15 22 - - 0.0
22/04:30pm 9.0 1.7 -0.3 52 3.9 WSW 28 41 15 22 - - 0.0
22/04:00pm 9.3 1.9 -0.6 50 4.2 WSW 28 39 15 21 - - 0.0
22/03:30pm 9.5 2.2 0.1 52 4.0 WSW 28 41 15 22 - - 0.0
22/03:00pm 10.2 2.9 -0.3 48 4.5 WSW 28 44 15 24 - - 0.0
22/02:30pm 9.5 1.8 -0.4 50 4.2 SW 30 48 16 26 - - 0.0
22/02:07pm 9.6 1.3 -0.6 49 4.3 WSW 33 54 18 29 - - 0.0
22/02:00pm 9.2 0.9 -0.1 52 4.0 WSW 33 50 18 27 - - 0.0
22/01:52pm 9.9 1.9 0.3 51 4.2 WSW 32 50 17 27 - - 0.0
22/01:30pm 9.0 0.8 0.2 54 3.8 WSW 33 50 18 27 - - 0.0
22/01:04pm 9.4 0.9 0.6 54 3.8 SW 35 54 19 29 - - 0.0
22/01:00pm 9.1 0.1 0.0 53 3.9 WSW 37 54 20 29 - - 0.0
22/12:45pm 8.6 0.0 0.1 55 3.6 WSW 35 54 19 29 - - 0.0
22/12:30pm 9.0 0.1 1.0 57 3.5 WSW 37 52 20 28 - - 0.0
22/12:00pm 8.4 -0.5 0.6 58 3.4 WSW 37 57 20 31 - - 0.0
22/11:30am 8.5 -0.8 0.5 57 3.4 SW 39 57 21 31 - - 0.0
22/11:00am 8.0 -2.6 0.7 60 3.1 SW 46 69 25 37 - - 0.0
22/10:30am 7.5 -3.1 0.7 62 2.9 SW 46 76 25 41 - - 0.0
22/10:00am 7.0 -4.3 1.3 67 2.5 WSW 50 80 27 43 - - 0.0
22/09:30am 6.8 -4.5 1.5 69 2.3 WSW 50 76 27 41 - - 0.0
22/09:00am 6.4 -4.4 1.7 72 2.0 WSW 48 72 26 39 - - 0.0
22/08:30am 5.8 -4.3 1.5 74 1.8 WSW 44 67 24 36 - - 0.0
22/08:00am 5.6 -5.2 1.7 76 1.7 WSW 48 74 26 40 - - 0.0
22/07:30am 5.6 -5.6 1.7 76 1.7 WSW 50 82 27 44 - - 0.0
22/07:00am 5.5 -7.1 1.4 75 1.7 WSW 57 91 31 49 - - 0.0
22/06:30am 5.5 -5.8 1.2 74 1.8 WSW 50 78 27 42 - - 0.0
22/06:00am 5.5 -6.6 1.1 73 1.9 WSW 54 83 29 45 - - 0.0
22/05:30am 5.7 -6.4 0.9 71 2.0 WSW 54 89 29 48 - - 0.0
22/05:00am 5.8 -7.3 0.8 70 2.1 WSW 59 87 32 47 - - 0.0
22/04:30am 5.9 -6.7 1.1 71 2.0 WSW 57 87 31 47 - - 0.0
22/04:00am 5.9 -6.7 1.1 71 2.0 WSW 57 82 31 44 - - 0.0
22/03:30am 6.0 -6.4 1.3 72 2.0 WSW 56 98 30 53 - - 0.0
22/03:00am 6.1 -5.9 1.6 73 1.9 WSW 54 87 29 47 - - 0.0
22/02:30am 6.1 -6.5 1.4 72 2.0 WSW 57 89 31 48 - - 0.0
22/02:00am 6.2 -6.2 1.7 73 1.9 WSW 56 83 30 45 - - 0.0
22/01:30am 6.4 -6.5 1.9 73 2.0 WSW 59 85 32 46 - - 0.0
22/01:06am 6.6 -5.9 1.9 72 2.0 WSW 57 98 31 53 - - 0.0
22/01:00am 6.5 -4.3 2.2 74 1.9 WSW 48 74 26 40 - - 0.0
22/12:30am 6.7 -5.1 2.8 76 1.7 WSW 54 83 29 45 - - 0.0
22/12:00am 6.8 -4.9 3.1 77 1.7 WSW 54 83 29 45 - - 0.0
 
Date/Time
EST
Temp
°C
App
Temp
°C
Dew
Point
°C
Rel
Hum
%
Delta-T
°C
Wind Press
QNH
hPa
Press
MSL
hPa
Rain since
9am
mm
Dir  Spd
km/h
Gust
km/h
Spd
kts
Gust
kts
21/11:30pm 6.7 -4.0 2.8 76 1.7 WSW 48 72 26 39 - - 0.0
21/11:29pm 6.7 -4.3 2.8 76 1.7 WSW 50 72 27 39 - - 0.0
21/11:26pm 6.7 -4.3 2.8 76 1.7 WSW 50 72 27 39 - - 0.0
21/11:16pm 6.9 -4.5 2.8 75 1.8 WSW 52 83 28 45 - - 0.0
21/11:00pm 7.0 -3.0 2.3 72 2.1 WSW 44 69 24 37 - - 0.0
21/10:30pm 7.1 -4.5 2.0 70 2.2 WSW 52 74 28 40 - - 0.0
21/10:00pm 7.1 -3.2 2.4 72 2.1 WSW 46 72 25 39 - - 0.0
21/09:30pm 7.1 -2.7 2.2 71 2.2 WSW 43 72 23 39 - - 0.0
21/09:00pm 7.1 -1.5 2.4 72 2.1 WSW 37 59 20 32 - - 0.0
21/08:30pm 7.1 -1.9 2.4 72 2.1 WSW 39 61 21 33 - - 0.0
21/08:00pm 7.0 -3.4 2.3 72 2.1 WSW 46 65 25 35 - - 0.0
21/07:30pm 6.9 -2.1 2.2 72 2.1 WSW 39 65 21 35 - - 0.0
21/07:05pm 7.2 -1.1 1.9 69 2.3 WSW 35 57 19 31 - - 0.0
21/07:00pm 7.2 -2.7 1.9 69 2.3 WSW 43 80 23 43 - - 0.0
21/06:30pm 7.4 -4.2 1.9 68 2.4 WSW 52 80 28 43 - - 0.0
21/06:00pm 7.7 -1.3 2.2 68 2.4 WSW 39 67 21 36 - - 0.0
21/05:30pm 7.9 -2.0 2.8 70 2.3 WSW 44 65 24 35 - - 0.0
21/05:00pm 7.9 -1.1 2.4 68 2.5 WSW 39 59 21 32 - - 0.0
21/04:30pm 8.2 -0.9 2.0 65 2.7 WSW 39 63 21 34 - - 0.0
21/04:00pm 8.4 -2.4 2.0 64 2.8 WSW 48 76 26 41 - - 0.0
21/03:30pm 8.5 -2.4 1.6 62 3.0 WSW 48 82 26 44 - - 0.0
21/03:00pm 9.8 -1.0 1.9 58 3.5 WSW 48 76 26 41 - - 0.0
21/02:30pm 9.2 -2.0 1.9 60 3.3 WSW 50 83 27 45 - - 0.0
21/02:00pm 8.8 -3.7 1.9 62 3.1 WSW 57 85 31 46 - - 0.0
21/01:30pm 8.9 -3.0 2.0 62 3.1 SW 54 80 29 43 - - 0.0
21/01:00pm 8.4 -3.9 2.2 65 2.8 WSW 56 91 30 49 - - 0.0
21/12:30pm 8.1 -3.8 2.1 66 2.7 WSW 54 85 29 46 - - 0.0
21/12:00pm 7.9 -3.3 2.0 66 2.6 WSW 50 72 27 39 - - 0.0
21/11:30am 7.7 -3.9 2.0 67 2.5 WSW 52 82 28 44 - - 0.0
21/11:00am 7.3 -4.3 2.0 69 2.3 WSW 52 87 28 47 - - 0.0
21/10:47am 7.0 -4.2 1.7 69 2.3 WSW 50 80 27 43 - - 0.0
21/10:30am 6.9 -2.2 1.8 70 2.2 WSW 39 69 21 37 - - 0.0
21/10:01am 6.5 -4.7 2.0 73 2.0 WSW 50 82 27 44 - - 0.0
21/10:00am 6.6 -4.9 2.1 73 2.0 WSW 52 82 28 44 - - 0.0
21/09:58am 6.3 -5.6 2.0 74 1.9 WSW 54 82 29 44 - - 0.0
21/09:54am 6.3 -5.7 1.6 72 2.0 WSW 54 82 29 44 - - 0.0
21/09:30am 6.4 -3.5 1.7 72 2.0 WSW 43 72 23 39 - - 0.0
21/09:00am 5.9 -3.2 1.8 75 1.8 WSW 39 59 21 32 - - 0.0
21/08:30am 5.6 -3.9 1.5 75 1.8 WSW 41 69 22 37 - - 0.0
21/08:00am 5.3 -5.2 1.6 77 1.6 WSW 46 76 25 41 - - 0.0
21/07:30am 5.2 -6.5 1.0 74 1.8 WSW 52 80 28 43 - - 0.0
21/07:00am 4.8 -6.9 0.8 75 1.7 WSW 52 76 28 41 - - 0.0
21/06:30am 4.6 -6.4 0.7 76 1.6 WSW 48 78 26 42 - - 0.0
21/06:00am 4.5 -8.1 1.2 79 1.4 WSW 57 85 31 46 - - 0.0
21/05:53am 4.5 -7.2 1.0 78 1.5 WSW 52 85 28 46 - - 0.0
21/05:30am 4.4 -5.6 0.9 78 1.5 WSW 43 72 23 39 - - 0.0
21/05:00am 4.6 -5.5 0.6 75 1.7 WSW 43 65 23 35 - - 0.0
21/04:30am 5.1 -4.6 0.7 73 1.8 WSW 41 72 22 39 - - 0.0
21/04:00am 5.1 -3.5 0.5 72 1.9 WSW 35 59 19 32 - - 0.0
21/03:30am 5.1 -5.1 0.7 73 1.8 WSW 44 74 24 40 - - 0.0
21/03:00am 5.0 -6.0 0.6 73 1.8 WSW 48 83 26 45 - - 0.0
21/02:55am 5.0 -6.0 0.6 73 1.8 WSW 48 83 26 45 - - 0.0
21/02:30am 4.7 -5.5 0.8 76 1.6 WSW 44 63 24 34 - - 0.0
21/02:00am 4.8 -7.8 1.1 77 1.6 WSW 57 78 31 42 - - 0.0
21/01:30am 4.7 -7.4 1.2 78 1.5 WSW 54 85 29 46 - - 0.0
21/01:00am 4.3 -8.4 1.0 79 1.4 WSW 57 80 31 43 - - 0.0
21/12:30am 4.5 -7.7 0.6 76 1.6 WSW 54 80 29 43 - - 0.0
21/12:00am 4.5 -8.0 0.5 75 1.6 WSW 56 80 30 43 - - 0.0
 
Date/Time
EST
Temp
°C
App
Temp
°C
Dew
Point
°C
Rel
Hum
%
Delta-T
°C
Wind Press
QNH
hPa
Press
MSL
hPa
Rain since
9am
mm
Dir  Spd
km/h
Gust
km/h
Spd
kts
Gust
kts
20/11:30pm 4.1 -7.3 0.3 76 1.6 WSW 50 70 27 38 - - 0.0
20/11:00pm 3.9 -6.8 0.1 76 1.5 WSW 46 70 25 38 - - 0.0
20/10:30pm 3.8 -7.7 -0.2 75 1.6 WSW 50 74 27 40 - - 0.0
20/10:00pm 3.7 -7.4 -0.1 76 1.5 WSW 48 67 26 36 - - 0.0
20/09:33pm 3.5 -6.3 -0.1 77 1.4 WSW 41 61 22 33 - - 0.0
20/09:30pm 3.5 -5.9 -0.3 76 1.5 WSW 39 56 21 30 - - 0.0
20/09:00pm 3.3 -4.8 -0.3 77 1.4 WSW 32 54 17 29 - - 0.0
20/08:30pm 3.5 -3.8 -0.3 76 1.5 W 28 46 15 25 - - 0.0
20/08:00pm 3.3 -5.4 -0.5 76 1.5 WSW 35 54 19 29 - - 0.0
20/07:30pm 3.5 -5.3 -0.9 73 1.7 WSW 35 59 19 32 - - 0.0
20/07:00pm 3.6 -5.5 -0.8 73 1.7 WSW 37 57 20 31 - - 0.0
20/06:49pm 3.5 -5.3 -1.1 72 1.8 WSW 35 54 19 29 - - 0.0
20/06:30pm 3.7 -5.8 -1.1 71 1.9 WSW 39 54 21 29 - - 0.0
20/06:18pm 3.8 -5.4 -1.2 70 2.0 WSW 37 50 20 27 - - 0.0
20/06:00pm 3.9 -2.8 -1.3 69 2.0 W 24 32 13 17 - - 0.0
20/05:30pm 4.5 -1.9 -1.7 64 2.4 W 22 32 12 17 - - 0.0

Latest Capital City Observations: Canberra | Sydney | Melbourne | Brisbane | Adelaide | Perth | Hobart | Darwin

Other formats

Comma delimited format used in spreadsheet applications
http://www.bom.gov.au/fwo/IDN60901/IDN60901.94743.axf

JavaScript Object Notation format (JSON) in row-major order
http://www.bom.gov.au/fwo/IDN60901/IDN60901.94743.json

Data quality

Most of these data are generated automatically and are frequently updated. Quality checks on data are not normally performed. It is possible for incorrect values to appear. Refer to information at About Latest Weather Observations and please check the disclaimer before using these data.